Los Molinos, California
Current Conditions -  °F | °C
As of 1:54 PM on Thursday 23 Oct 2014 (Local Time) from KRBL Reporting Station
Moderate Rain Moderate Rain  
Wind Chill: 16°   Ceiling: 8500
Heat Index: 16°   Visibility: 7mi
Dew Point: 13°   Wind: 5mph
Humidity: 86%   Direction: 360°N
Pressure: 30.07"   Gusts: NA
Location:  40.02°N, 122.1°W
Report Text: KRBL 232054Z AUTO 36004KT 7SM RA OVC085 16/13 A3007 RMK AO2 SLP181 P0006 60011 T01560133 50001
Loading
Personal Weather Stations






























Interactive Weather Map
Tropical Storm Tracking
New forecast layout! Learn more

10-Day Weather Forecast

Advertisements
Track Severe Weather on mobile